Aviation Digital Data Service (ADDS)

Output produced by METARs form (0256 UTC 21 April 2015)
found at http://aviationweather.gov/adds/metars/
 
KGFL 210239Z 2103/2124 VRB03KT P6SM VCSH SCT025 OVC035 
     FM210600 VRB03KT 3SM -SHRA BR SCT008 OVC015 
     TEMPO 2106/2109 2SM -SHRA BR BKN008 OVC015 
     FM210900 10006KT 1 1/2SM -RA BR OVC008 
     FM211200 22008KT 5SM BR VCSH SCT008 OVC015 
     FM211500 24010G16KT P6SM VCSH BKN015 OVC025 
     FM211800 25012G20KT P6SM BKN035